^^
Datos históricos de la estación: Murcia-Puente Tocinos
Diario Informe para Mayo 18, 2019 Unidades:  Métrico    Inglés   Ambas
Diario Semanal Mensual Anual Configurable
  Máximo: Mínimo: Media:
Temperatura: 23.7 °C 15.4 °C 19.7 °C
Punto de rocio: 13.9 °C 2.7 °C 7.1 °C
Humedad: 80% 26% 46%
Velocidad viento: 15.6km/h 0.0km/h 7.1km/h
Racha viento: 29.6km/h - -
Viento- - SSE
Presión: 1009.2 hPa 1005.1 hPa -
Precipitación: 0.0 mm    
Historical Graphs
 
 
Tabla de datos para Mayo 18, 2019
Hora Temperatura Punto de rocio Presión Viento Velocidad viento Racha viento Humedad Intensidad lluvia(por hora) Nubes
00:04 20.6 °C 4.2 °C 1007.9 hPa ENE 3.9 km/h 5.6 km/h 34% 0.0 mm CLR
00:09 20.5 °C 4.5 °C 1007.9 hPa ENE 3.9 km/h 5.0 km/h 35% 0.0 mm CLR
00:14 20.5 °C 4.1 °C 1007.9 hPa NE 3.9 km/h 3.9 km/h 34% 0.0 mm CLR
00:19 20.6 °C 4.2 °C 1007.9 hPa NE 3.2 km/h 3.7 km/h 34% 0.0 mm CLR
00:24 20.6 °C 4.6 °C 1007.9 hPa NE 3.2 km/h 3.7 km/h 35% 0.0 mm CLR
00:29 20.5 °C 4.9 °C 1007.9 hPa Calm     36% 0.0 mm CLR
00:34 20.4 °C 4.4 °C 1008.0 hPa Calm     35% 0.0 mm CLR
00:39 20.4 °C 4.8 °C 1008.0 hPa Calm   1.9 km/h 36% 0.0 mm CLR
00:44 20.3 °C 4.7 °C 1008.0 hPa Calm   4.7 km/h 36% 0.0 mm CLR
00:49 20.3 °C 4.3 °C 1007.9 hPa NE 2.3 km/h 5.6 km/h 35% 0.0 mm CLR
00:54 20.3 °C 4.3 °C 1007.9 hPa NE 2.3 km/h 5.6 km/h 35% 0.0 mm CLR
00:59 20.3 °C 4.3 °C 1007.9 hPa NE 3.2 km/h 3.9 km/h 35% 0.0 mm CLR
01:04 20.4 °C 4.8 °C 1008.0 hPa NE 3.2 km/h 3.7 km/h 36% 0.0 mm CLR
01:09 20.4 °C 4.8 °C 1008.0 hPa NE 2.9 km/h   36% 0.0 mm CLR
01:14 20.4 °C 4.4 °C 1008.0 hPa NE 2.9 km/h 3.7 km/h 35% 0.0 mm CLR
01:19 20.4 °C 4.8 °C 1007.9 hPa NE 2.3 km/h 3.7 km/h 36% 0.0 mm CLR
01:24 20.4 °C 4.8 °C 1007.9 hPa NE 2.3 km/h 3.7 km/h 36% 0.0 mm CLR
01:29 20.4 °C 5.2 °C 1007.9 hPa NE 2.3 km/h 3.7 km/h 37% 0.0 mm CLR
01:34 20.3 °C 5.1 °C 1007.8 hPa WSW 2.3 km/h 6.9 km/h 37% 0.0 mm CLR
01:39 20.2 °C 5.1 °C 1007.8 hPa WNW 3.9 km/h 5.6 km/h 37% 0.0 mm CLR
01:44 20.2 °C 5.1 °C 1007.8 hPa WNW 3.9 km/h 3.7 km/h 37% 0.0 mm CLR
01:49 20.1 °C 5.3 °C 1007.8 hPa WNW 2.3 km/h   38% 0.0 mm CLR
01:54 19.9 °C 5.9 °C 1007.8 hPa East 2.3 km/h 7.4 km/h 40% 0.0 mm CLR
01:59 19.6 °C 6.0 °C 1007.8 hPa East 2.9 km/h 3.7 km/h 41% 0.0 mm CLR
02:04 19.3 °C 6.1 °C 1007.8 hPa East 2.9 km/h 3.7 km/h 42% 0.0 mm CLR
02:09 19.2 °C 5.9 °C 1007.8 hPa Calm   3.7 km/h 42% 0.0 mm CLR
02:14 19.1 °C 5.9 °C 1007.8 hPa Calm   3.7 km/h 42% 0.0 mm CLR
02:19 19.1 °C 6.2 °C 1007.7 hPa Calm     43% 0.0 mm CLR
02:24 19.1 °C 5.9 °C 1007.7 hPa Calm   5.0 km/h 42% 0.0 mm CLR
02:29 19.2 °C 5.6 °C 1007.7 hPa SSE 2.9 km/h 11.1 km/h 41% 0.0 mm CLR
02:34 18.7 °C 6.2 °C 1007.6 hPa SSE 2.9 km/h 13.0 km/h 44% 0.0 mm CLR
02:39 18.3 °C 5.5 °C 1007.6 hPa South 9.5 km/h 9.3 km/h 43% 0.0 mm CLR
02:44 18.3 °C 5.2 °C 1007.6 hPa South 9.5 km/h 9.3 km/h 42% 0.0 mm CLR
02:49 18.3 °C 5.2 °C 1007.3 hPa SSW 6.9 km/h 9.3 km/h 42% 0.0 mm CLR
02:54 18.4 °C 5.2 °C 1007.3 hPa SW 6.9 km/h 7.4 km/h 42% 0.0 mm CLR
02:59 18.4 °C 4.9 °C 1007.3 hPa WSW 5.0 km/h 7.4 km/h 41% 0.0 mm CLR
03:04 18.5 °C 5.0 °C 1007.3 hPa West 5.0 km/h 7.4 km/h 41% 0.0 mm CLR
03:09 18.6 °C 5.1 °C 1007.3 hPa West 5.8 km/h 7.4 km/h 41% 0.0 mm CLR
03:14 18.5 °C 5.0 °C 1007.3 hPa ESE 5.8 km/h 7.6 km/h 41% 0.0 mm CLR
03:19 18.2 °C 5.7 °C 1007.3 hPa SE 4.7 km/h 9.3 km/h 44% 0.0 mm CLR
03:24 17.9 °C 5.4 °C 1007.3 hPa SSE 4.7 km/h 7.4 km/h 44% 0.0 mm CLR
03:29 17.8 °C 5.4 °C 1007.3 hPa SSE 5.0 km/h 7.4 km/h 44% 0.0 mm CLR
03:34 17.8 °C 5.7 °C 1007.0 hPa SSW 5.0 km/h 7.4 km/h 45% 0.0 mm CLR
03:39 17.8 °C 5.4 °C 1007.0 hPa SSW 5.0 km/h 7.4 km/h 44% 0.0 mm CLR
03:44 17.8 °C 5.4 °C 1007.0 hPa SSW 5.0 km/h 7.4 km/h 44% 0.0 mm CLR
03:49 17.8 °C 5.4 °C 1006.9 hPa SSW 3.9 km/h 4.7 km/h 44% 0.0 mm CLR
03:54 17.8 °C 5.4 °C 1006.9 hPa SSE 3.9 km/h 8.4 km/h 44% 0.0 mm CLR
03:59 17.7 °C 4.9 °C 1006.9 hPa SW 5.8 km/h 13.0 km/h 43% 0.0 mm CLR
04:04 17.8 °C 4.7 °C 1006.9 hPa SW 5.8 km/h 7.4 km/h 42% 0.0 mm CLR
04:09 17.8 °C 4.7 °C 1006.9 hPa SSW 6.4 km/h 7.4 km/h 42% 0.0 mm CLR
04:14 17.8 °C 4.3 °C 1006.9 hPa SSW 6.4 km/h 3.7 km/h 41% 0.0 mm CLR
04:19 17.9 °C 4.4 °C 1006.7 hPa NW 3.9 km/h 7.4 km/h 41% 0.0 mm CLR
04:24 17.8 °C 5.1 °C 1006.7 hPa NW 3.9 km/h   43% 0.0 mm CLR
04:29 17.7 °C 5.6 °C 1006.7 hPa SE 2.3 km/h 7.6 km/h 45% 0.0 mm CLR
04:34 17.2 °C 5.8 °C 1006.6 hPa SE 2.3 km/h 7.6 km/h 47% 0.0 mm CLR
04:39 16.7 °C 5.6 °C 1006.6 hPa South 5.8 km/h 9.5 km/h 48% 0.0 mm CLR
04:44 16.4 °C 5.3 °C 1006.6 hPa SSE 5.8 km/h 9.3 km/h 48% 0.0 mm CLR
04:49 16.4 °C 5.1 °C 1006.5 hPa SSE 6.4 km/h 7.6 km/h 47% 0.0 mm CLR
04:54 16.7 °C 5.3 °C 1006.5 hPa South 6.4 km/h 7.4 km/h 47% 0.0 mm CLR
04:59 16.7 °C 5.0 °C 1006.5 hPa South 4.7 km/h 5.6 km/h 46% 0.0 mm CLR
05:04 16.8 °C 5.4 °C 1006.6 hPa South 4.7 km/h 5.6 km/h 47% 0.0 mm CLR
05:09 16.7 °C 5.3 °C 1006.6 hPa South 3.9 km/h 3.7 km/h 47% 0.0 mm CLR
05:14 16.7 °C 5.6 °C 1006.6 hPa South 3.9 km/h   48% 0.0 mm CLR
05:19 16.7 °C 5.3 °C 1006.5 hPa Calm   2.9 km/h 47% 0.0 mm CLR
05:24 16.7 °C 5.3 °C 1006.5 hPa Calm   3.7 km/h 47% 0.0 mm CLR
05:29 16.9 °C 5.5 °C 1006.5 hPa South 2.9 km/h 3.7 km/h 47% 0.0 mm CLR
05:34 16.9 °C 5.8 °C 1006.5 hPa South 2.9 km/h   48% 0.0 mm CLR
05:39 16.9 °C 5.8 °C 1006.5 hPa South 2.3 km/h 3.7 km/h 48% 0.0 mm CLR
05:44 16.9 °C 5.8 °C 1006.5 hPa South 2.3 km/h   48% 0.0 mm CLR
05:49 16.8 °C 5.1 °C 1006.3 hPa Calm     46% 0.0 mm CLR
05:54 16.8 °C 5.7 °C 1006.3 hPa Calm   3.7 km/h 48% 0.0 mm CLR
05:59 16.7 °C 5.6 °C 1006.3 hPa WSW 2.3 km/h 3.7 km/h 48% 0.0 mm CLR
06:04 16.6 °C 5.6 °C 1006.3 hPa WSW 2.3 km/h 3.7 km/h 48% 0.0 mm CLR
06:09 16.4 °C 5.7 °C 1006.3 hPa WSW 2.3 km/h   49% 0.0 mm CLR
06:14 16.4 °C 5.9 °C 1006.3 hPa WSW 2.3 km/h   50% 0.0 mm CLR
06:19 16.3 °C 5.8 °C 1006.2 hPa Calm   3.9 km/h 50% 0.0 mm CLR
06:24 16.2 °C 5.4 °C 1006.2 hPa Calm     49% 0.0 mm CLR
06:29 16.2 °C 5.2 °C 1006.2 hPa WSW 2.3 km/h 3.7 km/h 48% 0.0 mm CLR
06:34 16.1 °C 5.4 °C 1006.2 hPa WSW 2.3 km/h 2.9 km/h 49% 0.0 mm CLR
06:39 16.0 °C 5.3 °C 1006.2 hPa Calm     49% 0.0 mm CLR
06:44 16.0 °C 5.8 °C 1006.2 hPa Calm   3.7 km/h 51% 0.0 mm CLR
06:49 15.9 °C 5.8 °C 1006.4 hPa Calm   7.4 km/h 51% 0.0 mm CLR
06:54 15.7 °C 5.6 °C 1006.4 hPa Calm     51% 0.0 mm CLR
06:59 15.6 °C 5.5 °C 1006.4 hPa NNW 2.3 km/h 3.7 km/h 51% 0.0 mm CLR
07:04 15.6 °C 5.2 °C 1006.5 hPa East 2.3 km/h 7.4 km/h 50% 0.0 mm CLR
07:09 15.5 °C 4.8 °C 1006.5 hPa ESE 3.2 km/h 7.4 km/h 49% 0.0 mm CLR
07:14 15.4 °C 4.7 °C 1006.5 hPa SE 3.2 km/h 7.4 km/h 49% 0.0 mm CLR
07:19 15.4 °C 5.0 °C 1006.6 hPa SE 4.7 km/h 5.6 km/h 50% 0.0 mm CLR
07:24 15.4 °C 5.0 °C 1006.6 hPa SE 4.7 km/h   50% 0.0 mm CLR
07:29 15.7 °C 5.0 °C 1006.6 hPa South 2.3 km/h 7.4 km/h 49% 0.0 mm CLR
07:34 15.9 °C 5.2 °C 1006.8 hPa South 2.3 km/h 9.3 km/h 49% 0.0 mm CLR
07:39 16.0 °C 5.6 °C 1006.8 hPa SSW 5.0 km/h 7.4 km/h 50% 0.0 mm CLR
07:44 16.1 °C 5.7 °C 1006.8 hPa South 5.0 km/h 7.4 km/h 50% 0.0 mm CLR
07:49 16.2 °C 5.8 °C 1006.9 hPa South 4.7 km/h 5.6 km/h 50% 0.0 mm CLR
07:54 16.3 °C 5.6 °C 1006.9 hPa South 4.7 km/h 4.7 km/h 49% 0.0 mm CLR
07:59 16.5 °C 6.1 °C 1006.9 hPa SSE 3.2 km/h 5.6 km/h 50% 0.0 mm CLR
08:04 16.7 °C 6.5 °C 1006.9 hPa SSE 3.2 km/h 4.7 km/h 51% 0.0 mm CLR
08:09 16.8 °C 6.9 °C 1006.9 hPa SSE 2.9 km/h 2.3 km/h 52% 0.0 mm CLR
08:14 16.9 °C 7.3 °C 1006.9 hPa SSE 2.9 km/h 3.7 km/h 53% 0.0 mm CLR
08:19 17.1 °C 7.2 °C 1006.8 hPa NE 2.3 km/h 3.7 km/h 52% 0.0 mm CLR
08:24 17.2 °C 6.7 °C 1006.8 hPa NE 2.3 km/h 3.7 km/h 50% 0.0 mm CLR
08:29 17.2 °C 6.7 °C 1006.8 hPa NE 2.3 km/h   50% 0.0 mm CLR
08:34 17.2 °C 6.7 °C 1006.8 hPa NNE 2.3 km/h 5.6 km/h 50% 0.0 mm CLR
08:39 17.2 °C 6.7 °C 1006.8 hPa NW 2.3 km/h 5.6 km/h 50% 0.0 mm CLR
08:44 17.2 °C 6.9 °C 1006.8 hPa NW 2.3 km/h 7.4 km/h 51% 0.0 mm CLR
08:49 17.2 °C 7.3 °C 1007.1 hPa NW 3.2 km/h 3.7 km/h 52% 0.0 mm CLR
08:54 17.3 °C 6.8 °C 1007.1 hPa West 3.2 km/h 5.6 km/h 50% 0.0 mm CLR
08:59 17.4 °C 6.3 °C 1007.1 hPa NW 3.9 km/h 5.6 km/h 48% 0.0 mm CLR
09:04 17.6 °C 5.5 °C 1007.4 hPa West 3.9 km/h 7.4 km/h 45% 0.0 mm CLR
09:09 17.8 °C 5.1 °C 1007.4 hPa West 4.7 km/h 7.4 km/h 43% 0.0 mm CLR
09:14 18.2 °C 4.4 °C 1007.4 hPa South 4.7 km/h 9.3 km/h 40% 0.0 mm CLR
09:19 18.4 °C 4.6 °C 1007.4 hPa SE 5.8 km/h 7.4 km/h 40% 0.0 mm CLR
09:24 18.8 °C 4.9 °C 1007.4 hPa SE 5.8 km/h 7.6 km/h 40% 0.0 mm CLR
09:29 18.9 °C 4.3 °C 1007.4 hPa SSE 5.0 km/h 9.3 km/h 38% 0.0 mm CLR
09:34 19.0 °C 4.7 °C 1007.5 hPa SW 5.0 km/h 7.4 km/h 39% 0.0 mm CLR
09:39 19.1 °C 4.4 °C 1007.5 hPa WSW 5.0 km/h 7.4 km/h 38% 0.0 mm CLR
09:44 19.3 °C 4.6 °C 1007.5 hPa SW 5.0 km/h 7.4 km/h 38% 0.0 mm CLR
09:49 19.4 °C 4.3 °C 1007.2 hPa WSW 3.9 km/h 7.4 km/h 37% 0.0 mm CLR
09:54 19.7 °C 5.0 °C 1007.2 hPa WSW 3.9 km/h 4.7 km/h 38% 0.0 mm CLR
09:59 19.9 °C 4.8 °C 1007.2 hPa SW 3.9 km/h 7.4 km/h 37% 0.0 mm CLR
10:04 20.1 °C 4.9 °C 1007.1 hPa WSW 3.9 km/h 7.4 km/h 37% 0.0 mm CLR
10:09 20.3 °C 4.7 °C 1007.1 hPa WSW 2.9 km/h 7.4 km/h 36% 0.0 mm CLR
10:14 20.5 °C 4.9 °C 1007.1 hPa WSW 2.9 km/h 5.6 km/h 36% 0.0 mm CLR
10:19 20.9 °C 4.8 °C 1007.0 hPa SSW 3.2 km/h 8.4 km/h 35% 0.0 mm CLR
10:24 21.1 °C 4.6 °C 1007.0 hPa WNW 3.2 km/h 7.4 km/h 34% 0.0 mm CLR
10:29 21.0 °C 4.6 °C 1007.0 hPa West 5.0 km/h 13.0 km/h 34% 0.0 mm CLR
10:34 21.2 °C 4.3 °C 1006.9 hPa SW 5.0 km/h 14.0 km/h 33% 0.0 mm CLR
10:39 21.2 °C 3.8 °C 1006.9 hPa WSW 8.4 km/h 11.1 km/h 32% 0.0 mm CLR
10:44 21.1 °C 4.2 °C 1006.9 hPa WSW 8.4 km/h 13.0 km/h 33% 0.0 mm CLR
10:49 21.1 °C 4.2 °C 1006.9 hPa WSW 7.6 km/h 11.1 km/h 33% 0.0 mm CLR
10:54 20.9 °C 4.0 °C 1006.9 hPa WSW 7.6 km/h 11.1 km/h 33% 0.0 mm CLR
10:59 21.0 °C 4.1 °C 1006.9 hPa NNW 7.6 km/h 8.7 km/h 33% 0.0 mm CLR
11:04 21.2 °C 4.3 °C 1006.9 hPa West 7.6 km/h 9.3 km/h 33% 0.0 mm CLR
11:09 21.2 °C 3.8 °C 1006.9 hPa SSW 5.0 km/h 8.4 km/h 32% 0.0 mm CLR
11:14 21.4 °C 4.0 °C 1006.9 hPa South 5.0 km/h 5.0 km/h 32% 0.0 mm CLR
11:19 21.5 °C 4.1 °C 1006.9 hPa WSW 4.7 km/h 7.4 km/h 32% 0.0 mm CLR
11:24 21.6 °C 4.2 °C 1006.9 hPa West 4.7 km/h 11.1 km/h 32% 0.0 mm CLR
11:29 21.8 °C 3.9 °C 1006.9 hPa NW 5.0 km/h 5.6 km/h 31% 0.0 mm CLR
11:34 22.2 °C 4.3 °C 1006.8 hPa ESE 5.0 km/h 5.6 km/h 31% 0.0 mm CLR
11:39 22.6 °C 3.7 °C 1006.8 hPa NNW 2.9 km/h 16.7 km/h 29% 0.0 mm CLR
11:44 22.6 °C 3.7 °C 1006.8 hPa SW 2.9 km/h 11.1 km/h 29% 0.0 mm CLR
11:49 22.4 °C 3.5 °C 1006.7 hPa SW 8.7 km/h 13.0 km/h 29% 0.0 mm CLR
11:54 22.4 °C 3.5 °C 1006.7 hPa NNW 8.7 km/h 13.0 km/h 29% 0.0 mm CLR
11:59 22.2 °C 3.3 °C 1006.7 hPa WNW 11.9 km/h 13.0 km/h 29% 0.0 mm CLR
12:04 22.3 °C 3.4 °C 1006.8 hPa SW 11.9 km/h 24.1 km/h 29% 0.0 mm CLR
12:09 22.3 °C 3.4 °C 1006.8 hPa South 10.3 km/h 14.8 km/h 29% 0.0 mm CLR
12:14 22.5 °C 4.1 °C 1006.8 hPa West 10.3 km/h 18.5 km/h 30% 0.0 mm CLR
12:19 22.3 °C 3.9 °C 1006.8 hPa WSW 10.3 km/h 20.4 km/h 30% 0.0 mm CLR
12:24 22.4 °C 3.9 °C 1006.8 hPa WNW 10.3 km/h 16.7 km/h 30% 0.0 mm CLR
12:29 22.4 °C 3.9 °C 1006.8 hPa NNW 10.3 km/h 5.8 km/h 30% 0.0 mm CLR
12:34 22.6 °C 4.1 °C 1006.8 hPa NW 10.3 km/h 7.4 km/h 30% 0.0 mm CLR
12:39 22.6 °C 3.7 °C 1006.8 hPa WNW 6.9 km/h 11.1 km/h 29% 0.0 mm CLR
12:44 22.4 °C 3.9 °C 1006.8 hPa NW 6.9 km/h 7.4 km/h 30% 0.0 mm CLR
12:49 22.5 °C 3.6 °C 1006.8 hPa North 8.4 km/h 13.0 km/h 29% 0.0 mm CLR
12:54 22.6 °C 3.7 °C 1006.8 hPa WNW 8.4 km/h 20.4 km/h 29% 0.0 mm CLR
12:59 22.5 °C 4.1 °C 1006.8 hPa West 7.6 km/h 13.0 km/h 30% 0.0 mm CLR
13:04 22.8 °C 4.3 °C 1006.4 hPa NW 7.6 km/h 6.9 km/h 30% 0.0 mm CLR
13:09 23.1 °C 4.1 °C 1006.4 hPa NW 5.8 km/h 18.3 km/h 29% 0.0 mm CLR
13:14 23.0 °C 3.5 °C 1006.4 hPa SW 5.8 km/h 17.2 km/h 28% 0.0 mm CLR
13:19 22.9 °C 3.9 °C 1006.4 hPa South 11.1 km/h 16.7 km/h 29% 0.0 mm CLR
13:24 23.0 °C 4.0 °C 1006.4 hPa WNW 11.1 km/h 28.2 km/h 29% 0.0 mm CLR
13:29 23.1 °C 4.1 °C 1006.4 hPa WNW 12.2 km/h 20.4 km/h 29% 0.0 mm CLR
13:34 23.3 °C 3.8 °C 1006.3 hPa WNW 12.2 km/h 22.2 km/h 28% 0.0 mm CLR
13:39 23.0 °C 3.5 °C 1006.3 hPa NW 11.9 km/h 13.0 km/h 28% 0.0 mm CLR
13:44 23.0 °C 3.5 °C 1006.3 hPa NW 11.9 km/h 13.0 km/h 28% 0.0 mm CLR
13:49 23.2 °C 3.2 °C 1006.1 hPa West 7.6 km/h 16.7 km/h 27% 0.0 mm CLR
13:54 23.2 °C 3.7 °C 1006.1 hPa West 7.6 km/h 14.8 km/h 28% 0.0 mm CLR
13:59 23.2 °C 3.2 °C 1006.1 hPa SE 9.5 km/h 9.3 km/h 27% 0.0 mm CLR
14:04 23.1 °C 3.6 °C 1006.1 hPa NNE 9.5 km/h 16.7 km/h 28% 0.0 mm CLR
14:09 23.2 °C 3.2 °C 1006.1 hPa WNW 8.4 km/h 13.0 km/h 27% 0.0 mm CLR
14:14 23.2 °C 3.2 °C 1006.1 hPa WSW 8.4 km/h 16.1 km/h 27% 0.0 mm CLR
14:19 23.4 °C 3.3 °C 1006.0 hPa WNW 10.0 km/h 11.1 km/h 27% 0.0 mm CLR
14:24 23.6 °C 3.5 °C 1006.0 hPa West 10.0 km/h 29.6 km/h 27% 0.0 mm CLR
14:29 23.4 °C 3.3 °C 1006.0 hPa NW 13.7 km/h 18.5 km/h 27% 0.0 mm CLR
14:34 23.3 °C 3.2 °C 1006.1 hPa ENE 13.7 km/h 14.8 km/h 27% 0.0 mm CLR
14:39 23.2 °C 3.2 °C 1006.1 hPa West 11.1 km/h 7.4 km/h 27% 0.0 mm CLR
14:44 23.4 °C 3.3 °C 1006.1 hPa WNW 11.1 km/h 14.8 km/h 27% 0.0 mm CLR
14:49 23.6 °C 2.9 °C 1006.0 hPa NNW 10.0 km/h 13.0 km/h 26% 0.0 mm CLR
14:54 23.5 °C 3.4 °C 1006.0 hPa NW 10.0 km/h 16.7 km/h 27% 0.0 mm CLR
14:59 23.4 °C 3.3 °C 1006.0 hPa WNW 10.3 km/h 27.8 km/h 27% 0.0 mm CLR
15:04 23.3 °C 3.2 °C 1005.8 hPa West 10.3 km/h 13.0 km/h 27% 0.0 mm CLR
15:09 23.4 °C 3.3 °C 1005.8 hPa NW 10.3 km/h 10.0 km/h 27% 0.0 mm CLR
15:14 23.6 °C 2.9 °C 1005.8 hPa NW 10.3 km/h 13.0 km/h 26% 0.0 mm CLR
15:19 23.7 °C 3.1 °C 1005.5 hPa WNW 6.9 km/h 13.0 km/h 26% 0.0 mm CLR
15:24 23.6 °C 2.9 °C 1005.5 hPa NNW 6.9 km/h 12.2 km/h 26% 0.0 mm CLR
15:29 23.6 °C 2.9 °C 1005.5 hPa NNW 9.5 km/h 19.0 km/h 26% 0.0 mm CLR
15:34 23.5 °C 3.4 °C 1005.8 hPa WNW 9.5 km/h 16.7 km/h 27% 0.0 mm CLR
15:39 23.3 °C 2.7 °C 1005.8 hPa WNW 14.0 km/h 16.7 km/h 26% 0.0 mm CLR
15:44 23.3 °C 3.2 °C 1005.8 hPa NW 14.0 km/h 13.0 km/h 27% 0.0 mm CLR
15:49 23.3 °C 2.7 °C 1005.6 hPa West 9.5 km/h 7.4 km/h 26% 0.0 mm CLR
15:54 23.4 °C 2.8 °C 1005.6 hPa WNW 9.5 km/h 10.3 km/h 26% 0.0 mm CLR
15:57 23.4 °C 2.8 °C 1005.6 hPa West 9.5 km/h 7.4 km/h 26% 0.0 mm CLR
17:09 22.7 °C 10.5 °C 1005.1 hPa East 7.6 km/h 11.1 km/h 46% 0.0 mm CLR
17:14 22.3 °C 10.4 °C 1005.1 hPa NE 7.6 km/h 11.1 km/h 47% 0.0 mm CLR
17:19 22.2 °C 10.0 °C 1005.4 hPa ESE 8.7 km/h 11.1 km/h 46% 0.0 mm CLR
17:24 22.3 °C 9.4 °C 1005.4 hPa ENE 8.7 km/h 16.7 km/h 44% 0.0 mm CLR
17:29 22.4 °C 9.2 °C 1005.4 hPa NNE 8.7 km/h 7.4 km/h 43% 0.0 mm CLR
17:34 22.4 °C 9.2 °C 1005.4 hPa NE 8.7 km/h 8.4 km/h 43% 0.0 mm CLR
17:39 22.6 °C 9.1 °C 1005.4 hPa NNE 6.4 km/h 9.3 km/h 42% 0.0 mm CLR
17:44 22.7 °C 9.1 °C 1005.4 hPa ENE 6.4 km/h 14.8 km/h 42% 0.0 mm CLR
17:49 22.6 °C 9.1 °C 1005.5 hPa ENE 8.4 km/h 16.7 km/h 42% 0.0 mm CLR
17:54 22.6 °C 9.1 °C 1005.5 hPa ENE 8.4 km/h 11.1 km/h 42% 0.0 mm CLR
17:59 22.6 °C 9.7 °C 1005.5 hPa ENE 6.9 km/h 16.7 km/h 44% 0.0 mm CLR
18:04 22.4 °C 10.2 °C 1005.7 hPa NE 6.9 km/h 19.0 km/h 46% 0.0 mm CLR
18:09 22.3 °C 10.1 °C 1005.7 hPa North 13.0 km/h 20.4 km/h 46% 0.0 mm CLR
18:14 22.2 °C 11.0 °C 1005.7 hPa NE 13.0 km/h 18.5 km/h 49% 0.0 mm CLR
18:19 22.1 °C 11.5 °C 1005.8 hPa NE 13.7 km/h 19.8 km/h 51% 0.0 mm CLR
18:24 21.9 °C 11.3 °C 1005.8 hPa NE 13.7 km/h 16.7 km/h 51% 0.0 mm CLR
18:29 21.9 °C 11.6 °C 1005.8 hPa NE 13.7 km/h 18.5 km/h 52% 0.0 mm CLR
18:34 21.7 °C 12.3 °C 1006.1 hPa NNE 13.7 km/h 20.9 km/h 55% 0.0 mm CLR
18:39 21.4 °C 12.0 °C 1006.1 hPa NE 15.6 km/h 24.1 km/h 55% 0.0 mm CLR
18:44 21.5 °C 12.1 °C 1006.1 hPa North 15.6 km/h 18.5 km/h 55% 0.0 mm CLR
18:49 21.5 °C 10.6 °C 1006.1 hPa NE 13.0 km/h 20.4 km/h 50% 0.0 mm CLR
18:54 21.7 °C 11.4 °C 1006.1 hPa NE 13.0 km/h 20.4 km/h 52% 0.0 mm CLR
18:59 21.7 °C 12.3 °C 1006.1 hPa East 13.0 km/h 11.1 km/h 55% 0.0 mm CLR
19:04 21.6 °C 12.7 °C 1006.2 hPa NE 13.0 km/h 16.7 km/h 57% 0.0 mm CLR
19:09 21.3 °C 12.2 °C 1006.2 hPa NE 11.1 km/h 20.4 km/h 56% 0.0 mm CLR
19:14 21.4 °C 11.7 °C 1006.2 hPa NE 11.1 km/h 18.5 km/h 54% 0.0 mm CLR
19:19 21.5 °C 11.5 °C 1006.2 hPa ENE 12.2 km/h 13.0 km/h 53% 0.0 mm CLR
19:24 21.5 °C 12.6 °C 1006.2 hPa ENE 12.2 km/h 11.1 km/h 57% 0.0 mm CLR
19:29 21.4 °C 12.8 °C 1006.2 hPa NNE 10.0 km/h 18.3 km/h 58% 0.0 mm CLR
19:34 21.2 °C 12.1 °C 1006.3 hPa NNE 10.0 km/h 20.4 km/h 56% 0.0 mm CLR
19:39 21.3 °C 11.3 °C 1006.3 hPa NE 14.0 km/h 14.8 km/h 53% 0.0 mm CLR
19:44 21.4 °C 11.7 °C 1006.3 hPa NE 14.0 km/h 11.1 km/h 54% 0.0 mm CLR
19:49 21.4 °C 12.0 °C 1006.5 hPa NE 10.0 km/h 12.2 km/h 55% 0.0 mm CLR
19:54 21.3 °C 12.9 °C 1006.5 hPa NNE 10.0 km/h 20.4 km/h 59% 0.0 mm CLR
19:59 21.2 °C 13.4 °C 1006.5 hPa NE 13.0 km/h 18.5 km/h 61% 0.0 mm CLR
20:04 21.1 °C 13.6 °C 1006.8 hPa NNE 13.0 km/h 20.9 km/h 62% 0.0 mm CLR
20:09 20.9 °C 13.6 °C 1006.8 hPa NNE 13.7 km/h 22.2 km/h 63% 0.0 mm CLR
20:14 20.7 °C 13.4 °C 1006.8 hPa NNE 13.7 km/h 20.4 km/h 63% 0.0 mm CLR
20:19 20.7 °C 13.4 °C 1006.9 hPa NE 14.0 km/h 19.8 km/h 63% 0.0 mm CLR
20:24 20.5 °C 13.4 °C 1006.9 hPa NE 14.0 km/h 18.5 km/h 64% 0.0 mm CLR
20:29 20.4 °C 13.6 °C 1006.9 hPa NE 14.0 km/h 18.5 km/h 65% 0.0 mm CLR
20:34 20.2 °C 13.4 °C 1007.0 hPa NE 14.0 km/h 24.1 km/h 65% 0.0 mm CLR
20:39 20.2 °C 13.7 °C 1007.0 hPa NNE 14.0 km/h 16.7 km/h 66% 0.0 mm CLR
20:44 20.0 °C 13.7 °C 1007.0 hPa NNE 14.0 km/h 24.5 km/h 67% 0.0 mm CLR
20:49 19.8 °C 13.7 °C 1007.3 hPa NE 14.8 km/h 19.0 km/h 68% 0.0 mm CLR
20:54 19.7 °C 13.6 °C 1007.3 hPa NE 14.8 km/h 14.0 km/h 68% 0.0 mm CLR
20:59 19.6 °C 13.8 °C 1007.3 hPa NW 13.0 km/h 16.7 km/h 69% 0.0 mm CLR
21:04 19.3 °C 13.7 °C 1007.4 hPa North 13.0 km/h 20.4 km/h 70% 0.0 mm CLR
21:09 19.2 °C 13.8 °C 1007.4 hPa NE 13.0 km/h 14.0 km/h 71% 0.0 mm CLR
21:14 19.1 °C 13.7 °C 1007.4 hPa NE 13.0 km/h 16.7 km/h 71% 0.0 mm CLR
21:19 19.0 °C 13.8 °C 1007.6 hPa NE 10.3 km/h 17.2 km/h 72% 0.0 mm CLR
21:24 18.9 °C 13.9 °C 1007.6 hPa NE 10.3 km/h 16.7 km/h 73% 0.0 mm CLR
21:29 18.7 °C 13.8 °C 1007.6 hPa NNE 11.9 km/h 18.5 km/h 73% 0.0 mm CLR
21:34 18.7 °C 13.9 °C 1007.9 hPa NE 11.9 km/h 16.1 km/h 74% 0.0 mm CLR
21:39 18.5 °C 13.8 °C 1007.9 hPa ENE 11.1 km/h 17.2 km/h 74% 0.0 mm CLR
21:44 18.4 °C 13.9 °C 1007.9 hPa NNE 11.1 km/h 16.7 km/h 75% 0.0 mm CLR
21:49 18.3 °C 13.8 °C 1008.0 hPa NE 13.0 km/h 14.8 km/h 75% 0.0 mm CLR
21:54 18.2 °C 13.7 °C 1008.0 hPa North 13.0 km/h 14.8 km/h 75% 0.0 mm CLR
21:59 18.1 °C 13.6 °C 1008.0 hPa North 13.0 km/h 18.5 km/h 75% 0.0 mm CLR
22:04 18.0 °C 13.7 °C 1008.4 hPa North 13.0 km/h 19.0 km/h 76% 0.0 mm CLR
22:09 17.9 °C 13.6 °C 1008.4 hPa ENE 14.0 km/h 16.7 km/h 76% 0.0 mm CLR
22:14 17.9 °C 13.6 °C 1008.4 hPa NE 14.0 km/h 18.5 km/h 76% 0.0 mm CLR
22:19 17.8 °C 13.5 °C 1008.5 hPa NNE 12.2 km/h 22.2 km/h 76% 0.0 mm CLR
22:24 17.8 °C 13.5 °C 1008.5 hPa NE 12.2 km/h 13.0 km/h 76% 0.0 mm CLR
22:29 17.7 °C 13.6 °C 1008.5 hPa NE 11.9 km/h 16.7 km/h 77% 0.0 mm CLR
22:34 17.6 °C 13.5 °C 1008.8 hPa NE 11.9 km/h 16.7 km/h 77% 0.0 mm CLR
22:39 17.6 °C 13.5 °C 1008.8 hPa NE 10.3 km/h 14.8 km/h 77% 0.0 mm CLR
22:44 17.4 °C 13.5 °C 1008.8 hPa NE 10.3 km/h 14.8 km/h 78% 0.0 mm CLR
22:49 17.4 °C 13.5 °C 1009.0 hPa NE 10.3 km/h 14.8 km/h 78% 0.0 mm CLR
22:54 17.4 °C 13.5 °C 1009.0 hPa NNE 10.3 km/h 13.0 km/h 78% 0.0 mm CLR
22:59 17.3 °C 13.4 °C 1009.0 hPa NE 10.3 km/h 14.8 km/h 78% 0.0 mm CLR
23:04 17.3 °C 13.6 °C 1009.1 hPa ENE 10.3 km/h 13.0 km/h 79% 0.0 mm CLR
23:09 17.2 °C 13.5 °C 1009.1 hPa NNE 10.3 km/h 13.0 km/h 79% 0.0 mm CLR
23:14 17.2 °C 13.5 °C 1009.1 hPa North 10.3 km/h 9.3 km/h 79% 0.0 mm CLR
23:19 17.0 °C 13.5 °C 1009.2 hPa ESE 7.6 km/h 14.8 km/h 80% 0.0 mm CLR
23:24 17.1 °C 13.6 °C 1009.2 hPa NE 7.6 km/h 13.0 km/h 80% 0.0 mm CLR
23:29 17.1 °C 13.6 °C 1009.2 hPa NE 9.5 km/h 13.0 km/h 80% 0.0 mm CLR
23:34 17.0 °C 13.5 °C 1009.2 hPa ENE 9.5 km/h 11.1 km/h 80% 0.0 mm CLR
23:39 16.9 °C 13.4 °C 1009.2 hPa NE 6.9 km/h 9.3 km/h 80% 0.0 mm CLR
23:44 16.9 °C 13.4 °C 1009.2 hPa NE 6.9 km/h 7.6 km/h 80% 0.0 mm CLR
23:49 16.9 °C 13.4 °C 1009.2 hPa NE 6.4 km/h 5.6 km/h 80% 0.0 mm CLR
23:54 16.9 °C 13.4 °C 1009.2 hPa NNW 6.4 km/h 7.4 km/h 80% 0.0 mm CLR
23:59 16.9 °C 13.4 °C 1009.2 hPa East 2.9 km/h 5.0 km/h 80% 0.0 mm CLR
Murcia-Puente Tocinos, España
Compliments of Weather Underground - 2.75 mb

La estación de MeteoMurcia.com, publica sus datos en los siguientes proyectos:

Weather Underground PWS IMURCIAP2 Meteoclimatic www.awekas.at

W3Counter
Web Analytics